Liverpool, Canada
Current Conditions -  °F | °C
As of 9:00 PM on Wednesday 22 Oct 2014 (Local Time) from CYZX Reporting Station
Light Rain Light Rain  
Wind Chill: 50°   Ceiling: 1000
Heat Index: 50°   Visibility: 3mi
Dew Point: 48°   Wind: 23mph
Humidity: 94%   Direction: 70°ENE
Pressure: 30.18"   Gusts: 35mph
Location:  44.03°N, 64.72°W
Report Text: CYZX 230000Z 07020G30KT 3SM -RA BR BKN010 OVC022 10/09 A3018 RMK SC6SC2 VIS VRB 2-4 WNDY HILL 08025G36KT SLP220
Loading
Personal Weather Stations






























Interactive Weather Map
Tropical Storm Tracking
New forecast layout! Learn more

10-Day Weather Forecast

Advertisements
Track Severe Weather on mobile